Time;durP1;ratioP1;P1;durP2;ratioP2;P2;SDS_P1;SDS_P2;PMS_P1;PMS_P2;Temp;Humidity;BMP_temperature;BMP_pressure;BME280_temperature;BME280_humidity;BME280_pressure;Samples;Min_cycle;Max_cycle;Signal;HPM_P1;HPM_P2
2023/06/01 00:01:01;;;;;;;;;;;22.50;41.60;;;22.62;30.36;98774.84;5077420;27;119447;-75
2023/06/01 00:03:29;;;;;;;;;;;22.40;41.60;;;22.59;30.68;98781.25;5052458;27;118064;-75
2023/06/01 00:05:58;;;;;;;;;;;22.40;41.80;;;22.55;30.56;98783.25;5079940;27;124232;-76
2023/06/01 00:08:24;;;;;;;;;;;22.40;42.00;;;22.51;30.79;98774.78;5059667;27;124485;-75
2023/06/01 00:10:55;;;;;;;;;;;22.30;42.00;;;22.47;30.90;98785.22;5073015;27;119386;-76
2023/06/01 00:13:24;;;;;;;;;;;22.30;42.20;;;22.42;30.99;98777.94;5084626;27;118776;-75
2023/06/01 00:15:51;;;;;;;;;;;22.20;42.20;;;22.40;31.33;98777.53;5073625;27;123845;-75
2023/06/01 00:18:19;;;;;;;;;;;22.20;42.40;;;22.36;31.20;98776.72;5068503;27;124668;-75
2023/06/01 00:20:48;;;;;;;;;;;22.10;42.50;;;22.31;31.57;98782.72;5068735;27;119078;-75
2023/06/01 00:23:15;;;;;;;;;;;22.10;42.60;;;22.28;31.54;98783.50;5067484;27;117692;-76
2023/06/01 00:25:41;;;;;;;;;;;22.10;42.60;;;22.23;31.48;98783.84;5049270;27;124318;-75
2023/06/01 00:28:08;;;;;;;;;;;22.00;42.70;;;22.19;31.67;98781.03;5066491;27;123825;-76
2023/06/01 00:30:34;;;;;;;;;;;22.00;42.90;;;22.16;31.81;98786.56;5073302;27;120183;-76
2023/06/01 00:33:00;;;;;;;;;;;22.00;43.00;;;22.14;31.94;98783.34;5082022;27;119794;-76
2023/06/01 00:35:26;;;;;;;;;;;21.90;43.10;;;22.10;31.80;98788.16;5061292;27;124055;-75
2023/06/01 00:37:55;;;;;;;;;;;21.90;43.30;;;22.06;31.88;98788.94;5087775;27;124120;-76
2023/06/01 00:40:21;;;;;;;;;;;21.90;43.40;;;22.03;31.74;98789.72;5066240;27;120246;-75
2023/06/01 00:42:48;;;;;;;;;;;21.80;43.40;;;22.00;31.73;98784.03;5083581;27;118496;-76
2023/06/01 00:45:16;;;;;;;;;;;21.80;43.40;;;21.96;31.92;98795.28;5082295;27;124580;-75
2023/06/01 00:47:45;;;;;;;;;;;21.70;43.30;;;21.91;31.84;98789.19;5084727;27;123549;-76
2023/06/01 00:50:14;;;;;;;;;;;21.70;43.50;;;21.86;32.21;98784.72;5069649;27;120097;-75
2023/06/01 00:52:43;;;;;;;;;;;21.70;43.70;;;21.81;32.35;98785.88;5080352;27;119378;-76
2023/06/01 00:55:10;;;;;;;;;;;21.60;43.80;;;21.76;32.51;98791.06;5043484;27;123738;-75
2023/06/01 00:57:38;;;;;;;;;;;21.50;43.80;;;21.73;32.70;98787.03;5055315;27;123372;-75
2023/06/01 01:00:09;;;;;;;;;;;21.50;43.90;;;21.69;32.70;98782.59;5057927;27;120067;-76
2023/06/01 01:02:37;;;;;;;;;;;21.50;44.00;;;21.65;32.53;98785.34;5063965;27;119325;-77
2023/06/01 01:05:10;;;;;;;;;;;21.40;44.00;;;21.62;32.63;98786.13;5068945;27;125181;-77
2023/06/01 01:07:51;;;;;;;;;;;21.40;44.10;;;21.58;32.47;98794.53;5086093;27;123993;-76
2023/06/01 01:10:36;;;;;;;;;;;21.40;44.20;;;21.52;32.94;98782.03;5078040;27;119777;-76
2023/06/01 01:13:11;;;;;;;;;;;21.30;44.20;;;21.51;32.75;98779.59;5065747;27;118337;-76
2023/06/01 01:15:52;;;;;;;;;;;21.30;44.40;;;21.47;32.72;98779.56;5081023;27;124220;-76
2023/06/01 01:18:32;;;;;;;;;;;21.30;44.50;;;21.43;33.24;98784.31;5070501;27;124123;-75
2023/06/01 01:21:03;;;;;;;;;;;21.20;44.50;;;21.41;33.41;98786.72;5076041;27;120580;-75
2023/06/01 01:23:51;;;;;;;;;;;21.20;44.70;;;21.37;33.15;98783.88;5051127;27;119098;-74
2023/06/01 01:26:20;;;;;;;;;;;21.20;44.80;;;21.33;33.32;98768.13;5067244;27;124294;-75
2023/06/01 01:28:51;;;;;;;;;;;21.10;44.90;;;21.29;33.29;98784.97;5081840;27;124182;-75
2023/06/01 01:31:22;;;;;;;;;;;21.10;45.00;;;21.26;33.71;98779.31;5068615;27;120525;-75
2023/06/01 01:33:53;;;;;;;;;;;21.00;45.00;;;21.23;33.56;98780.06;5072360;27;118533;-74
2023/06/01 01:36:19;;;;;;;;;;;21.00;45.10;;;21.19;33.77;98780.81;5068457;27;124859;-74
2023/06/01 01:38:46;;;;;;;;;;;21.00;45.20;;;21.15;33.38;98784.81;5081062;27;124124;-74
2023/06/01 01:41:13;;;;;;;;;;;20.90;45.20;;;21.12;33.85;98771.53;5064667;27;119221;-75
2023/06/01 01:43:42;;;;;;;;;;;20.90;45.40;;;21.07;33.53;98772.66;5087302;27;119025;-75
2023/06/01 01:46:18;;;;;;;;;;;20.90;45.50;;;21.03;33.99;98766.19;5073170;27;124252;-77
2023/06/01 01:49:02;;;;;;;;;;;20.80;45.60;;;21.00;34.21;98771.78;5086444;27;124627;-76
2023/06/01 01:51:37;;;;;;;;;;;20.80;45.80;;;20.97;34.19;98781.78;5077051;27;117967;-76
2023/06/01 01:54:06;;;;;;;;;;;20.70;45.80;;;20.93;34.21;98773.31;5080752;27;119451;-76
2023/06/01 01:56:35;;;;;;;;;;;20.70;46.00;;;20.88;34.29;98770.03;5060895;27;123982;-76
2023/06/01 01:59:02;;;;;;;;;;;20.70;46.10;;;20.83;34.29;98773.97;5048068;27;124217;-76
2023/06/01 02:01:31;;;;;;;;;;;20.60;45.80;;;20.79;34.28;98766.69;5072598;27;119891;-76
2023/06/01 02:04:07;;;;;;;;;;;20.60;45.80;;;20.73;34.31;98763.41;5062841;27;119328;-77
2023/06/01 02:06:36;;;;;;;;;;;20.50;45.80;;;20.69;34.01;98763.38;5055292;27;124408;-76
2023/06/01 02:09:08;;;;;;;;;;;20.50;45.90;;;20.65;34.09;98770.94;5054406;27;123967;-76
2023/06/01 02:11:35;;;;;;;;;;;20.40;45.90;;;20.63;34.05;98769.69;5062519;27;120371;-76
2023/06/01 02:14:01;;;;;;;;;;;20.40;45.80;;;20.60;34.32;98760.03;5033416;27;119059;-76
2023/06/01 02:16:27;;;;;;;;;;;20.40;45.90;;;20.57;34.39;98751.56;5068758;27;123757;-76
2023/06/01 02:18:57;;;;;;;;;;;20.30;45.90;;;20.54;34.29;98767.19;5086125;27;124576;-76
2023/06/01 02:21:24;;;;;;;;;;;20.30;45.80;;;20.53;34.33;98757.13;5053694;27;118894;-75
2023/06/01 02:23:53;;;;;;;;;;;20.30;45.80;;;20.52;34.06;98758.28;5047986;27;118314;-76
2023/06/01 02:26:19;;;;;;;;;;;20.30;45.90;;;20.51;33.86;98756.69;5071763;27;124236;-76
2023/06/01 02:28:46;;;;;;;;;;;20.30;46.00;;;20.48;34.31;98755.44;5068013;27;123693;-74
2023/06/01 02:31:14;;;;;;;;;;;20.20;45.90;;;20.46;34.31;98759.81;5068322;27;119582;-76
2023/06/01 02:33:42;;;;;;;;;;;20.20;45.90;;;20.44;34.21;98757.38;5071291;27;118200;-76
2023/06/01 02:36:10;;;;;;;;;;;20.20;46.00;;;20.42;34.32;98765.38;5078486;27;123197;-75
2023/06/01 02:38:36;;;;;;;;;;;20.10;46.00;;;20.40;34.37;98762.16;5069070;27;123832;-78
2023/06/01 02:41:02;;;;;;;;;;;20.10;46.20;;;20.37;34.73;98765.72;5069306;27;119556;-77
2023/06/01 02:43:28;;;;;;;;;;;20.10;46.30;;;20.34;34.77;98757.22;5076374;27;118634;-76
2023/06/01 02:45:55;;;;;;;;;;;20.10;46.40;;;20.33;34.90;98755.63;5062981;27;123316;-76
2023/06/01 02:48:21;;;;;;;;;;;20.10;46.50;;;20.29;34.83;98761.19;5079335;27;124507;-76
2023/06/01 02:50:50;;;;;;;;;;;20.00;46.60;;;20.28;34.78;98751.13;5084266;27;119434;-76
2023/06/01 02:53:16;;;;;;;;;;;20.00;46.70;;;20.25;35.18;98761.13;5067093;27;118816;-76
2023/06/01 02:55:45;;;;;;;;;;;20.00;46.90;;;20.22;35.17;98756.25;5081324;27;124328;-76
2023/06/01 02:58:16;;;;;;;;;;;20.00;47.00;;;20.20;35.35;98764.28;5086185;27;123970;-76
2023/06/01 03:00:42;;;;;;;;;;;20.00;47.20;;;20.15;35.43;98767.41;5084091;27;119756;-76
2023/06/01 03:03:09;;;;;;;;;;;19.90;47.30;;;20.11;35.30;98765.72;5087032;27;119715;-76
2023/06/01 03:05:35;;;;;;;;;;;19.80;47.30;;;20.10;35.33;98764.91;5086019;27;124262;-77
2023/06/01 03:08:02;;;;;;;;;;;19.80;47.40;;;20.06;35.59;98759.22;5066977;27;123950;-76
2023/06/01 03:10:31;;;;;;;;;;;19.80;47.60;;;20.06;35.86;98764.03;5086054;27;119415;-76
2023/06/01 03:13:01;;;;;;;;;;;19.80;47.80;;;20.02;35.73;98758.38;5067999;27;118673;-76
2023/06/01 03:15:27;;;;;;;;;;;19.80;47.80;;;20.00;35.76;98759.94;5079882;27;124830;-76
2023/06/01 03:17:53;;;;;;;;;;;19.70;47.80;;;19.97;35.82;98767.13;5081009;27;123829;-77
2023/06/01 03:20:19;;;;;;;;;;;19.70;47.90;;;19.92;36.02;98761.00;5038870;27;118427;-80
2023/06/01 03:22:46;;;;;;;;;;;19.70;47.90;;;19.90;35.89;98769.78;5048155;27;118714;-75
2023/06/01 03:25:12;;;;;;;;;;;19.60;47.90;;;19.88;35.90;98771.34;5085027;27;124229;-78
2023/06/01 03:27:42;;;;;;;;;;;19.60;48.00;;;19.85;36.06;98764.50;5073611;27;124963;-76
2023/06/01 03:30:10;;;;;;;;;;;19.60;48.10;;;19.83;36.12;98767.69;5069207;27;119502;-75
2023/06/01 03:32:37;;;;;;;;;;;19.60;48.20;;;19.80;36.24;98767.63;5050530;27;118758;-75
2023/06/01 03:35:04;;;;;;;;;;;19.50;48.30;;;19.80;36.47;98776.03;5053679;27;126582;-75
2023/06/01 03:37:36;;;;;;;;;;;19.50;48.50;;;19.78;36.61;98776.41;5083192;27;123304;-75
2023/06/01 03:40:10;;;;;;;;;;;19.50;48.60;;;19.75;36.53;98776.38;5068540;27;119423;-75
2023/06/01 03:42:47;;;;;;;;;;;19.50;48.70;;;19.74;36.63;98769.13;5057757;27;118824;-74
2023/06/01 03:45:16;;;;;;;;;;;19.50;48.90;;;19.72;36.72;98771.47;5068539;27;124110;-76
2023/06/01 03:47:45;;;;;;;;;;;19.50;49.00;;;19.72;36.67;98772.31;5068183;27;124333;-75
2023/06/01 03:50:11;;;;;;;;;;;19.40;48.90;;;19.71;36.83;98775.47;5049625;27;119687;-75
2023/06/01 03:52:38;;;;;;;;;;;19.40;49.00;;;19.70;36.80;98780.28;5057331;27;119694;-75
2023/06/01 03:55:08;;;;;;;;;;;19.40;49.20;;;19.73;36.84;98779.53;5064621;27;124035;-74
2023/06/01 03:57:35;;;;;;;;;;;19.40;49.20;;;19.77;36.62;98780.41;5031401;27;123189;-75
2023/06/01 04:00:22;;;;;;;;;;;19.40;49.30;;;19.77;36.72;98782.38;5023383;27;118579;-75
2023/06/01 04:02:54;;;;;;;;;;;19.40;49.30;;;19.76;36.77;98783.59;5046556;27;118891;-74
2023/06/01 04:05:24;;;;;;;;;;;19.40;49.40;;;19.80;36.97;98788.06;5031397;27;124092;-75
2023/06/01 04:07:52;;;;;;;;;;;19.40;49.60;;;19.86;37.13;98786.56;5045326;27;125366;-75
2023/06/01 04:10:19;;;;;;;;;;;19.40;49.70;;;19.90;36.94;98785.81;5048291;27;119452;-75
2023/06/01 04:12:46;;;;;;;;;;;19.40;49.80;;;19.90;37.01;98783.00;5076787;27;119023;-74
2023/06/01 04:15:14;;;;;;;;;;;19.50;49.90;;;19.90;36.97;98783.00;5060478;27;123982;-75
2023/06/01 04:17:42;;;;;;;;;;;19.50;49.80;;;19.88;37.11;98783.41;5061032;27;123913;-75
2023/06/01 04:20:10;;;;;;;;;;;19.50;49.90;;;19.86;37.19;98786.56;5038238;27;118664;-75
2023/06/01 04:22:38;;;;;;;;;;;19.50;49.90;;;19.86;36.94;98783.75;5031158;27;118848;-75
2023/06/01 04:25:08;;;;;;;;;;;19.50;49.90;;;19.88;37.03;98790.97;5046797;27;124315;-75
2023/06/01 04:27:38;;;;;;;;;;;19.50;49.90;;;19.86;37.33;98789.38;5079808;27;123965;-76
2023/06/01 04:30:07;;;;;;;;;;;19.50;50.00;;;19.85;37.11;98786.94;5050060;27;118821;-75
2023/06/01 04:32:39;;;;;;;;;;;19.50;50.00;;;19.84;37.18;98794.53;5056893;27;118857;-74
2023/06/01 04:35:09;;;;;;;;;;;19.50;49.90;;;19.82;37.16;98794.09;5084471;27;124237;-74
2023/06/01 04:37:39;;;;;;;;;;;19.50;49.80;;;19.82;36.99;98798.91;5071878;27;123593;-75
2023/06/01 04:40:09;;;;;;;;;;;19.50;49.80;;;19.80;37.11;98795.66;5085854;27;119709;-75
2023/06/01 04:42:48;;;;;;;;;;;19.50;49.70;;;19.76;36.92;98789.19;5057384;27;119523;-74
2023/06/01 04:45:15;;;;;;;;;;;19.50;49.70;;;19.75;37.08;98791.19;5073332;27;124197;-75
2023/06/01 04:47:44;;;;;;;;;;;19.40;49.60;;;19.75;36.94;98794.00;5068664;27;123968;-74
2023/06/01 04:50:11;;;;;;;;;;;19.40;49.70;;;19.76;37.00;98790.00;5055026;27;120256;-77
2023/06/01 04:52:39;;;;;;;;;;;19.40;49.70;;;19.79;37.04;98794.84;5041657;27;118261;-74
2023/06/01 04:55:06;;;;;;;;;;;20.60;50.80;;;19.80;37.21;98785.28;5056954;27;124465;-75
2023/06/01 04:57:36;;;;;;;;;;;19.50;49.90;;;19.80;37.06;98793.69;5053595;27;123799;-75
2023/06/01 05:00:07;;;;;;;;;;;19.50;49.90;;;19.82;36.94;98798.91;5056489;27;119419;-76
2023/06/01 05:02:34;;;;;;;;;;;19.40;49.80;;;19.80;37.13;98801.25;5073627;27;119908;-76
2023/06/01 05:05:00;;;;;;;;;;;19.50;49.90;;;19.81;37.17;98798.09;5055803;27;124914;-75
2023/06/01 05:07:27;;;;;;;;;;;19.50;50.00;;;19.81;37.28;98798.09;5082695;27;123807;-75
2023/06/01 05:09:53;;;;;;;;;;;19.50;50.00;;;19.83;37.35;98795.72;5060111;27;119431;-75
2023/06/01 05:12:21;;;;;;;;;;;19.50;50.10;;;19.86;37.44;98794.97;5070663;27;118165;-75
2023/06/01 05:14:47;;;;;;;;;;;19.50;50.10;;;19.90;37.08;98805.44;5066961;27;124448;-75
2023/06/01 05:17:14;;;;;;;;;;;19.50;50.20;;;19.93;37.25;98796.28;5049550;27;124596;-76
2023/06/01 05:19:40;;;;;;;;;;;19.50;50.20;;;19.97;37.05;98802.78;5070931;27;119348;-77
2023/06/01 05:22:06;;;;;;;;;;;19.60;50.30;;;20.00;37.16;98799.22;5072634;27;118410;-77
2023/06/01 05:24:32;;;;;;;;;;;19.60;50.40;;;20.04;37.27;98805.66;5077206;27;123933;-76
2023/06/01 05:26:59;;;;;;;;;;;19.60;50.40;;;20.05;37.22;98808.13;5066354;27;123984;-79
2023/06/01 05:29:25;;;;;;;;;;;19.60;50.50;;;20.10;37.41;98809.00;5069397;27;120801;-76
2023/06/01 05:31:52;;;;;;;;;;;19.70;50.50;;;20.13;37.39;98797.81;5071318;27;119922;-75
2023/06/01 05:34:18;;;;;;;;;;;19.70;50.50;;;20.18;37.23;98797.50;5078904;27;124301;-81
2023/06/01 05:36:47;;;;;;;;;;;19.70;50.50;;;20.22;37.22;98806.78;5060597;27;124133;-80
2023/06/01 05:39:15;;;;;;;;;;;19.80;50.60;;;20.28;37.18;98812.88;5068347;27;119625;-78
2023/06/01 05:41:42;;;;;;;;;;;19.80;50.60;;;20.37;37.24;98809.81;5054579;27;118966;-79
2023/06/01 05:44:08;;;;;;;;;;;19.90;50.50;;;20.43;37.00;98805.50;5059191;27;124359;-79
2023/06/01 05:46:35;;;;;;;;;;;19.90;50.50;;;20.48;37.05;98796.75;5058044;27;124605;-79
2023/06/01 05:49:01;;;;;;;;;;;20.00;50.60;;;20.56;37.15;98800.50;5052977;27;120955;-77
2023/06/01 05:51:27;;;;;;;;;;;20.10;50.60;;;20.62;36.45;98796.97;5053978;27;119774;-81
2023/06/01 05:53:53;;;;;;;;;;;20.10;50.60;;;20.64;37.00;98793.78;5059126;27;124107;-80
2023/06/01 05:56:19;;;;;;;;;;;20.10;50.50;;;20.65;36.55;98799.00;5063072;27;123847;-80
2023/06/01 05:58:52;;;;;;;;;;;20.10;50.40;;;20.72;36.57;98804.72;5064201;27;119698;-81
2023/06/01 06:01:19;;;;;;;;;;;20.20;50.50;;;20.78;36.97;98799.59;5062382;27;118759;-80
2023/06/01 06:03:46;;;;;;;;;;;20.20;50.80;;;20.77;36.71;98797.16;5062181;27;124325;-80
2023/06/01 06:06:15;;;;;;;;;;;20.20;50.70;;;20.78;36.99;98799.59;5059475;27;123887;-80
2023/06/01 06:08:41;;;;;;;;;;;20.30;50.70;;;20.82;37.11;98799.63;5046723;27;119293;-79
2023/06/01 06:11:07;;;;;;;;;;;20.30;50.70;;;20.88;36.79;98809.34;5064630;27;118566;-79
2023/06/01 06:13:36;;;;;;;;;;;20.30;50.60;;;20.91;36.53;98803.78;5053122;27;124890;-79
2023/06/01 06:16:03;;;;;;;;;;;20.40;50.80;;;20.89;36.92;98811.75;5051796;27;123842;-79
2023/06/01 06:18:29;;;;;;;;;;;20.40;50.80;;;20.93;36.76;98811.84;5053648;27;120709;-79
2023/06/01 06:20:55;;;;;;;;;;;20.40;50.70;;;20.99;36.99;98815.91;5052050;27;119883;-79
2023/06/01 06:23:22;;;;;;;;;;;20.50;50.80;;;21.04;36.71;98815.59;5063981;27;124101;-80
2023/06/01 06:25:48;;;;;;;;;;;20.60;50.70;;;21.10;36.48;98804.81;5064709;27;124398;-79
2023/06/01 06:28:17;;;;;;;;;;;20.60;50.70;;;21.14;36.39;98809.28;5058413;27;119348;-80
2023/06/01 06:30:43;;;;;;;;;;;20.70;51.40;;;21.18;36.64;98800.91;5059014;27;118377;-79
2023/06/01 06:33:12;;;;;;;;;;;20.70;50.70;;;21.26;36.62;98801.78;5049295;27;124485;-79
2023/06/01 06:35:41;;;;;;;;;;;20.70;50.70;;;21.32;36.35;98805.88;5064585;27;125153;-80
2023/06/01 06:38:07;;;;;;;;;;;20.80;50.60;;;21.38;36.21;98807.16;5079165;27;119964;-80
2023/06/01 06:40:36;;;;;;;;;;;20.90;50.70;;;21.47;36.25;98807.69;5052290;27;118767;-78
2023/06/01 06:43:02;;;;;;;;;;;21.00;50.60;;;21.57;35.90;98801.34;5064644;27;124893;-78
2023/06/01 06:45:28;;;;;;;;;;;21.00;50.50;;;21.68;36.04;98812.72;5066211;27;123796;-78
2023/06/01 06:47:55;;;;;;;;;;;21.10;50.30;;;21.77;35.75;98818.00;5066511;27;119289;-80
2023/06/01 06:50:22;;;;;;;;;;;21.20;50.00;;;21.85;35.39;98811.25;5082093;27;118436;-80
2023/06/01 06:52:48;;;;;;;;;;;21.20;49.70;;;21.92;35.21;98802.06;5073156;27;124650;-79
2023/06/01 06:55:14;;;;;;;;;;;21.30;49.60;;;22.00;35.31;98807.38;5054964;27;124061;-79
2023/06/01 06:57:41;;;;;;;;;;;21.40;49.60;;;22.03;34.93;98808.59;5081027;27;119437;-80
2023/06/01 07:00:14;;;;;;;;;;;21.40;49.40;;;22.02;34.57;98810.59;5074369;27;118497;-79
2023/06/01 07:02:41;;;;;;;;;;;21.40;49.00;;;22.04;34.95;98796.94;5083611;27;124268;-79
2023/06/01 07:05:08;;;;;;;;;;;21.50;49.00;;;22.14;34.52;98803.88;5058231;27;124665;-79
2023/06/01 07:07:34;;;;;;;;;;;21.60;49.00;;;22.20;34.26;98802.34;5082890;27;119773;-79
2023/06/01 07:10:04;;;;;;;;;;;21.70;48.80;;;22.19;34.37;98808.34;5055989;27;119839;-79
2023/06/01 07:12:31;;;;;;;;;;;21.70;48.70;;;22.20;34.42;98804.34;5082754;27;124605;-79
2023/06/01 07:14:57;;;;;;;;;;;21.70;48.80;;;22.26;34.71;98808.41;5061961;27;124159;-79
2023/06/01 07:17:26;;;;;;;;;;;21.70;48.80;;;22.33;34.17;98807.66;5086662;27;119444;-79
2023/06/01 07:19:52;;;;;;;;;;;21.80;48.80;;;22.40;34.17;98802.06;5076384;27;118825;-79
2023/06/01 07:22:20;;;;;;;;;;;21.80;48.80;;;22.48;34.36;98798.91;5065978;27;124096;-79
2023/06/01 07:24:49;;;;;;;;;;;21.90;49.40;;;22.55;34.16;98797.34;5063772;27;124071;-80
2023/06/01 07:27:16;;;;;;;;;;;21.90;48.40;;;22.58;33.83;98793.75;5072692;27;118861;-79
2023/06/01 07:29:44;;;;;;;;;;;22.00;48.40;;;22.60;34.01;98794.97;5074546;27;119370;-81
2023/06/01 07:32:10;;;;;;;;;;;22.00;48.20;;;22.66;33.42;98793.38;5063769;27;124170;-77
2023/06/01 07:34:37;;;;;;;;;;;22.00;48.10;;;22.67;33.41;98791.38;5064504;27;123204;-78
2023/06/01 07:37:04;;;;;;;;;;;22.00;47.60;;;22.71;33.09;98793.00;5047385;27;118597;-79
2023/06/01 07:39:31;;;;;;;;;;;22.10;47.70;;;22.82;33.35;98790.25;5088973;27;119415;-80
2023/06/01 07:41:57;;;;;;;;;;;22.20;47.60;;;22.93;33.34;98795.94;5067504;27;123746;-79
2023/06/01 07:44:23;;;;;;;;;;;22.30;47.70;;;23.07;33.21;98795.22;5089034;27;123900;-80
2023/06/01 07:46:50;;;;;;;;;;;22.40;47.70;;;23.17;33.00;98799.28;5073002;27;119920;-80
2023/06/01 07:49:17;;;;;;;;;;;22.50;47.60;;;23.15;33.49;98796.84;5075798;27;118761;-79
2023/06/01 07:51:45;;;;;;;;;;;22.50;48.00;;;23.15;33.38;98800.47;5066315;27;124348;-80
2023/06/01 07:54:11;;;;;;;;;;;22.50;48.20;;;23.17;33.40;98794.44;5057903;27;123941;-79
2023/06/01 07:56:39;;;;;;;;;;;22.60;48.00;;;23.24;33.51;98793.66;5084085;27;120451;-79
2023/06/01 07:59:05;;;;;;;;;;;22.70;48.00;;;23.27;33.61;98798.50;5078147;27;119846;-79
2023/06/01 08:01:32;;;;;;;;;;;22.70;48.10;;;23.28;33.56;98794.47;5053277;27;124301;-80
2023/06/01 08:03:59;;;;;;;;;;;22.80;48.70;;;23.28;33.91;98798.09;5067463;27;124549;-79
2023/06/01 08:06:26;;;;;;;;;;;22.80;48.20;;;23.30;33.61;98786.44;5076329;27;120005;-80
2023/06/01 08:08:52;;;;;;;;;;;22.80;48.20;;;23.35;33.63;98791.69;5053564;27;119241;-80
2023/06/01 08:11:19;;;;;;;;;;;22.90;48.00;;;23.37;33.64;98790.09;5035535;27;123889;-80
2023/06/01 08:20:39;;;;;;;;;;;22.90;48.00;;;23.50;33.40;98781.22;5074062;27;119554;-80
2023/06/01 08:23:13;;;;;;;;;;;23.00;47.90;;;23.61;33.30;98782.06;5063232;27;123659;-78
2023/06/01 08:25:41;;;;;;;;;;;23.10;48.00;;;23.71;32.96;98778.47;5073638;27;124170;-79
2023/06/01 08:28:12;;;;;;;;;;;23.20;47.90;;;23.80;32.77;98781.72;5078549;27;120066;-79
2023/06/01 08:30:41;;;;;;;;;;;23.20;47.60;;;23.87;32.46;98775.28;5055048;27;118201;-79
2023/06/01 08:33:10;;;;;;;;;;;23.30;47.30;;;23.93;32.44;98775.66;5039545;27;123231;-78
2023/06/01 08:35:36;;;;;;;;;;;23.30;47.10;;;23.96;32.41;98769.22;5086627;27;124697;-77
2023/06/01 08:38:03;;;;;;;;;;;23.40;47.10;;;23.97;32.18;98765.19;5053334;27;118695;-78
2023/06/01 08:40:40;;;;;;;;;;;23.30;46.60;;;23.97;32.08;98768.81;5079766;27;119052;-79
2023/06/01 08:43:20;;;;;;;;;;;23.40;46.80;;;24.00;32.03;98767.22;5069084;27;124195;-79
2023/06/01 08:45:51;;;;;;;;;;;23.40;46.70;;;24.03;31.89;98766.41;5061795;27;124339;-78
2023/06/01 08:48:23;;;;;;;;;;;23.50;46.70;;;24.05;31.81;98755.50;5070868;27;120570;-79
2023/06/01 08:50:51;;;;;;;;;;;23.50;46.30;;;24.08;31.79;98763.16;5058423;27;118123;-79
2023/06/01 08:53:21;;;;;;;;;;;23.50;46.30;;;24.13;31.72;98759.94;5059042;27;125095;-79
2023/06/01 08:55:59;;;;;;;;;;;23.60;46.40;;;24.18;31.75;98762.38;5048655;27;123915;-79
2023/06/01 08:58:26;;;;;;;;;;;23.70;46.20;;;24.24;31.71;98754.28;5077783;27;119570;-79
2023/06/01 09:00:58;;;;;;;;;;;23.70;46.20;;;24.28;31.73;98757.09;5074025;27;118763;-80
2023/06/01 09:03:25;;;;;;;;;;;23.70;45.90;;;24.34;31.87;98758.28;5050468;27;123786;-79
2023/06/01 09:05:51;;;;;;;;;;;23.80;45.90;;;24.36;31.45;98758.69;5064481;27;124374;-79
2023/06/01 09:08:22;;;;;;;;;;;23.90;45.50;;;24.39;31.11;98757.88;5060562;27;119360;-78
2023/06/01 09:10:48;;;;;;;;;;;23.80;45.50;;;24.44;31.31;98755.47;5076346;27;121306;-79
2023/06/01 09:13:39;;;;;;;;;;;23.90;45.60;;;24.48;30.96;98760.34;5064767;27;124956;-78
2023/06/01 09:16:11;;;;;;;;;;;24.00;45.30;;;24.53;30.76;98755.06;5077545;27;123965;-80
2023/06/01 09:18:52;;;;;;;;;;;24.00;45.30;;;24.56;31.03;98751.41;5066719;27;119927;-80
2023/06/01 09:21:22;;;;;;;;;;;24.00;45.30;;;24.61;30.96;98756.66;5048906;27;118439;-79
2023/06/01 09:23:50;;;;;;;;;;;24.10;46.00;;;24.66;30.89;98758.22;5042377;27;123454;-80
2023/06/01 09:26:26;;;;;;;;;;;24.10;45.30;;;24.68;31.00;98756.63;5074926;27;123519;-79
2023/06/01 09:29:01;;;;;;;;;;;24.10;45.20;;;24.71;30.78;98754.19;5075731;27;119525;-79
2023/06/01 09:31:47;;;;;;;;;;;24.20;45.30;;;24.73;31.16;98758.22;5081140;27;119325;-78
2023/06/01 09:34:21;;;;;;;;;;;24.20;45.40;;;24.75;30.88;98752.97;5065090;27;125026;-79
2023/06/01 09:36:49;;;;;;;;;;;24.30;45.50;;;24.81;31.24;98750.53;5077779;27;123999;-80
2023/06/01 09:39:23;;;;;;;;;;;24.30;45.50;;;24.86;31.50;98741.63;5037996;27;120220;-78
2023/06/01 09:42:02;;;;;;;;;;;24.40;45.80;;;24.90;31.00;98742.41;5033705;27;119749;-79
2023/06/01 09:44:36;;;;;;;;;;;24.40;45.70;;;24.97;31.25;98750.84;5024648;27;124650;-79
2023/06/01 09:47:09;;;;;;;;;;;24.50;45.80;;;24.98;31.31;98746.81;5034530;27;123848;-85
2023/06/01 09:49:38;;;;;;;;;;;24.50;45.70;;;24.99;31.10;98741.97;5042328;27;119973;-77
2023/06/01 09:52:10;;;;;;;;;;;24.50;45.70;;;25.01;31.12;98734.69;5041809;27;119059;-77
2023/06/01 09:54:43;;;;;;;;;;;24.50;45.60;;;25.09;31.29;98741.94;5025568;27;124036;-79
2023/06/01 09:57:11;;;;;;;;;;;24.60;46.10;;;25.16;30.96;98735.44;5040859;27;123987;-78
2023/06/01 09:59:46;;;;;;;;;;;24.70;45.60;;;25.19;30.83;98733.81;5034615;27;119446;-80
2023/06/01 10:02:25;;;;;;;;;;;24.70;45.60;;;25.24;31.06;98730.56;5041491;27;118727;-77
2023/06/01 10:04:57;;;;;;;;;;;24.70;45.60;;;25.28;30.80;98731.31;5033684;27;125154;-77
2023/06/01 10:07:33;;;;;;;;;;;24.70;45.40;;;25.32;30.76;98726.47;5021383;27;122937;-79
2023/06/01 10:10:02;;;;;;;;;;;24.80;45.60;;;25.37;30.84;98728.84;5037162;27;118547;-77
2023/06/01 10:12:34;;;;;;;;;;;24.90;45.70;;;25.46;30.38;98732.03;5032013;27;118742;-78
2023/06/01 10:15:03;;;;;;;;;;;24.90;45.50;;;25.51;30.66;98719.47;5033958;27;124494;-78
2023/06/01 10:17:29;;;;;;;;;;;25.00;45.40;;;25.54;30.93;98716.59;5058147;27;124141;-77
2023/06/01 10:20:03;;;;;;;;;;;25.10;45.40;;;25.58;30.40;98710.94;5071811;27;119569;-77
2023/06/01 10:22:32;;;;;;;;;;;25.10;45.10;;;25.63;30.25;98712.50;5064752;27;118373;-78
2023/06/01 10:25:01;;;;;;;;;;;25.10;44.80;;;25.68;29.73;98720.53;5076697;27;124242;-78
2023/06/01 10:27:38;;;;;;;;;;;25.10;44.60;;;25.70;29.82;98709.63;5058906;27;124286;-84
2023/06/01 10:30:08;;;;;;;;;;;25.10;44.50;;;25.71;29.75;98711.22;5053715;27;122098;-79
2023/06/01 10:32:37;;;;;;;;;;;25.20;44.50;;;25.76;30.03;98703.09;5064837;27;119535;-78
2023/06/01 10:35:04;;;;;;;;;;;25.30;44.30;;;25.81;29.58;98707.50;5079142;27;125501;-79
2023/06/01 10:37:30;;;;;;;;;;;25.30;44.00;;;25.88;29.08;98706.69;5053585;27;123760;-77
2023/06/01 10:40:29;;;;;;;;;;;25.30;43.40;;;25.91;28.75;98705.84;5064296;27;119176;-77
2023/06/01 10:42:56;;;;;;;;;;;25.40;42.80;;;26.01;28.53;98699.28;5026303;27;119432;-77
2023/06/01 10:45:39;;;;;;;;;;;25.50;42.40;;;26.03;28.30;98690.34;5040877;27;124684;-77
2023/06/01 10:48:07;;;;;;;;;;;25.50;41.90;;;26.07;27.86;98691.91;5031535;27;124428;-77
2023/06/01 10:50:41;;;;;;;;;;;25.60;41.90;;;26.13;27.50;98683.78;5006117;28;118550;-78
2023/06/01 10:53:30;;;;;;;;;;;25.60;41.30;;;26.16;27.77;98677.25;5024966;27;118633;-78
2023/06/01 10:56:27;;;;;;;;;;;25.70;41.70;;;26.21;27.78;98683.28;5026356;27;124174;-79
2023/06/01 10:59:08;;;;;;;;;;;25.70;41.80;;;26.28;28.07;98673.91;5044237;27;124513;-79
2023/06/01 11:01:42;;;;;;;;;;;25.80;42.00;;;26.31;28.06;98680.75;5040404;27;119181;-78
2023/06/01 11:04:15;;;;;;;;;;;25.80;42.00;;;26.35;28.39;98679.47;5022452;27;118609;-78
2023/06/01 11:06:48;;;;;;;;;;;25.90;42.10;;;26.43;28.32;98680.19;5027378;27;124856;-78
2023/06/01 11:09:16;;;;;;;;;;;26.00;42.10;;;26.46;27.75;98673.69;5007334;27;123393;-78
2023/06/01 11:11:51;;;;;;;;;;;26.00;41.90;;;26.52;27.72;98665.53;5041648;27;120015;-78
2023/06/01 11:14:29;;;;;;;;;;;26.10;41.80;;;26.56;27.80;98658.63;5041892;27;119302;-78
2023/06/01 11:17:26;;;;;;;;;;;26.10;41.30;;;26.58;27.26;98661.84;5014061;27;123139;-79
2023/06/01 11:20:06;;;;;;;;;;;26.10;40.80;;;26.63;27.39;98661.38;5053467;27;124206;-79
2023/06/01 11:22:39;;;;;;;;;;;26.10;40.90;;;26.70;27.38;98666.13;5045236;27;121229;-78
2023/06/01 11:25:07;;;;;;;;;;;26.20;40.70;;;26.74;26.66;98666.91;5056379;27;119814;-77
2023/06/01 11:27:42;;;;;;;;;;;26.20;40.40;;;26.80;26.78;98665.19;5058867;27;124407;-78